Time;durP1;ratioP1;P1;durP2;ratioP2;P2;SDS_P1;SDS_P2;PMS_P1;PMS_P2;Temp;Humidity;BMP_temperature;BMP_pressure;BME280_temperature;BME280_humidity;BME280_pressure;Samples;Min_cycle;Max_cycle;Signal;HPM_P1;HPM_P2
2023/09/10 00:00:52;;;;;;;15.40;13.80;;;20.40;99.90;;;;;;5035731;28;20448;-79
2023/09/10 00:03:19;;;;;;;13.63;12.20;;;20.40;99.90;;;;;;5035373;28;20475;-77
2023/09/10 00:05:46;;;;;;;14.07;12.83;;;20.30;99.90;;;;;;5036005;28;20452;-78
2023/09/10 00:08:14;;;;;;;14.23;12.83;;;20.30;99.90;;;;;;5035369;28;20448;-79
2023/09/10 00:10:41;;;;;;;15.73;14.23;;;20.30;99.90;;;;;;5035655;28;20449;-79
2023/09/10 00:13:09;;;;;;;13.73;12.43;;;20.30;99.90;;;;;;5035997;28;20473;-78
2023/09/10 00:15:36;;;;;;;14.63;13.13;;;20.30;99.90;;;;;;5036272;28;20583;-78
2023/09/10 00:18:02;;;;;;;14.83;13.33;;;20.30;99.90;;;;;;5037873;28;20511;-76
2023/09/10 00:20:29;;;;;;;14.27;12.80;;;20.30;99.90;;;;;;5040690;28;20448;-78
2023/09/10 00:22:56;;;;;;;14.63;13.23;;;20.30;99.90;;;;;;5034273;28;20457;-78
2023/09/10 00:25:25;;;;;;;15.00;13.47;;;20.30;99.90;;;;;;5034998;28;20488;-78
2023/09/10 00:27:52;;;;;;;13.70;12.40;;;20.20;99.90;;;;;;5035179;28;20540;-78
2023/09/10 00:30:19;;;;;;;12.67;11.47;;;20.20;99.90;;;;;;5035218;28;20456;-78
2023/09/10 00:32:45;;;;;;;13.47;12.17;;;20.20;99.90;;;;;;5035573;28;20914;-78
2023/09/10 00:35:12;;;;;;;15.00;13.60;;;20.20;99.90;;;;;;5035232;28;20452;-77
2023/09/10 00:37:39;;;;;;;14.27;12.93;;;20.10;99.90;;;;;;5034827;28;20950;-78
2023/09/10 00:40:07;;;;;;;13.63;12.43;;;20.10;99.90;;;;;;5035291;28;20459;-78
2023/09/10 00:42:35;;;;;;;13.90;12.50;;;20.10;99.90;;;;;;5034634;28;20441;-77
2023/09/10 00:45:03;;;;;;;14.13;12.77;;;20.10;99.90;;;;;;5035593;28;20498;-79
2023/09/10 00:47:31;;;;;;;14.10;12.83;;;20.10;99.90;;;;;;5035186;28;20452;-78
2023/09/10 00:49:58;;;;;;;15.17;13.67;;;20.00;99.90;;;;;;5035137;28;20459;-78
2023/09/10 00:52:27;;;;;;;13.90;12.50;;;20.00;99.90;;;;;;5035592;28;20444;-79
2023/09/10 00:54:54;;;;;;;15.40;12.67;;;20.00;99.90;;;;;;5035346;28;20476;-78
2023/09/10 00:57:22;;;;;;;15.20;13.60;;;20.00;99.90;;;;;;5035371;28;20467;-78
2023/09/10 00:59:50;;;;;;;14.50;13.10;;;20.00;99.90;;;;;;5034854;28;20455;-79
2023/09/10 01:02:17;;;;;;;13.23;12.03;;;20.00;99.90;;;;;;5035286;28;20456;-78
2023/09/10 01:04:44;;;;;;;14.40;12.93;;;20.00;99.90;;;;;;5034505;28;20876;-78
2023/09/10 01:07:11;;;;;;;15.30;13.80;;;19.90;99.90;;;;;;5035160;28;20449;-79
2023/09/10 01:09:38;;;;;;;14.07;12.70;;;19.90;99.90;;;;;;5035318;28;20459;-78
2023/09/10 01:12:12;;;;;;;14.93;13.53;;;19.90;99.90;;;;;;5034540;28;20885;-79
2023/09/10 01:14:43;;;;;;;16.10;14.37;;;19.90;99.90;;;;;;5034840;28;20476;-78
2023/09/10 01:17:20;;;;;;;15.00;13.40;;;19.90;99.90;;;;;;5034995;28;20487;-79
2023/09/10 01:19:59;;;;;;;14.73;13.40;;;19.90;99.90;;;;;;5036467;28;20535;-78
2023/09/10 01:22:33;;;;;;;15.93;14.33;;;19.90;99.90;;;;;;5037195;28;20459;-78
2023/09/10 01:25:02;;;;;;;16.80;14.30;;;19.90;99.90;;;;;;5037878;28;20484;-79
2023/09/10 01:27:29;;;;;;;15.63;14.23;;;19.90;99.90;;;;;;5038121;28;20475;-78
2023/09/10 01:29:56;;;;;;;18.40;14.50;;;19.80;99.90;;;;;;5038703;28;20528;-78
2023/09/10 01:32:31;;;;;;;15.90;14.20;;;19.80;99.90;;;;;;5038531;28;20440;-78
2023/09/10 01:35:08;;;;;;;17.80;15.67;;;19.80;99.90;;;;;;5038806;28;21119;-78
2023/09/10 01:37:41;;;;;;;16.63;15.13;;;19.80;99.90;;;;;;5037991;28;20649;-78
2023/09/10 01:40:14;;;;;;;17.50;14.40;;;19.80;99.90;;;;;;5038202;28;20452;-78
2023/09/10 01:42:42;;;;;;;16.50;14.90;;;19.80;99.90;;;;;;5037925;28;20976;-78
2023/09/10 01:45:10;;;;;;;17.27;15.43;;;19.80;99.90;;;;;;5037862;28;20498;-78
2023/09/10 01:47:37;;;;;;;17.80;15.23;;;19.80;99.90;;;;;;5038168;28;20451;-78
2023/09/10 01:50:06;;;;;;;16.90;14.93;;;19.80;99.90;;;;;;5037886;28;20444;-78
2023/09/10 01:52:33;;;;;;;17.70;15.73;;;19.70;99.90;;;;;;5038080;28;20448;-78
2023/09/10 01:55:00;;;;;;;16.90;14.97;;;19.80;99.90;;;;;;5038304;28;20460;-78
2023/09/10 01:57:28;;;;;;;16.67;15.13;;;19.70;99.90;;;;;;5037890;28;20980;-79
2023/09/10 01:59:54;;;;;;;18.83;16.80;;;19.70;99.90;;;;;;5038407;28;20452;-78
2023/09/10 02:02:21;;;;;;;16.87;15.10;;;19.70;99.90;;;;;;5037500;28;20453;-79
2023/09/10 02:04:48;;;;;;;20.70;17.30;;;19.70;99.90;;;;;;5037529;28;20492;-78
2023/09/10 02:07:15;;;;;;;18.07;16.10;;;19.70;99.90;;;;;;5038350;28;20455;-78
2023/09/10 02:09:42;;;;;;;20.00;17.40;;;19.70;99.90;;;;;;5052902;28;20452;-78
2023/09/10 02:12:09;;;;;;;18.03;16.13;;;19.70;99.90;;;;;;5056127;28;20451;-78
2023/09/10 02:14:37;;;;;;;18.00;16.10;;;19.70;99.90;;;;;;5057497;28;20464;-79
2023/09/10 02:17:07;;;;;;;18.17;15.70;;;19.70;99.90;;;;;;5057588;28;20459;-78
2023/09/10 02:19:34;;;;;;;18.10;16.20;;;19.70;99.90;;;;;;5057886;28;20546;-79
2023/09/10 02:22:02;;;;;;;16.87;15.17;;;19.70;99.90;;;;;;5057493;28;20452;-77
2023/09/10 02:24:29;;;;;;;18.47;16.57;;;19.60;99.90;;;;;;5062903;28;20483;-76
2023/09/10 02:26:56;;;;;;;17.43;15.70;;;19.60;99.90;;;;;;5058073;28;20461;-79
2023/09/10 02:29:22;;;;;;;18.47;16.50;;;19.60;99.90;;;;;;5056883;28;20750;-79
2023/09/10 02:31:51;;;;;;;20.53;17.70;;;19.60;99.90;;;;;;5056804;28;20454;-78
2023/09/10 02:34:17;;;;;;;20.07;16.90;;;19.60;99.90;;;;;;5056695;28;21048;-78
2023/09/10 02:36:44;;;;;;;23.97;17.23;;;19.60;99.90;;;;;;5056822;28;20458;-79
2023/09/10 02:39:11;;;;;;;19.20;15.30;;;19.60;99.90;;;;;;5056737;28;20543;-79
2023/09/10 02:41:38;;;;;;;19.30;16.17;;;19.60;99.90;;;;;;5056895;28;20456;-78
2023/09/10 02:44:05;;;;;;;17.57;15.23;;;19.60;99.90;;;;;;5056536;28;20490;-79
2023/09/10 02:46:32;;;;;;;17.57;15.77;;;19.60;99.90;;;;;;5056834;28;20470;-78
2023/09/10 02:49:00;;;;;;;19.67;17.50;;;19.50;99.90;;;;;;5056635;28;20462;-78
2023/09/10 02:51:27;;;;;;;19.37;16.90;;;19.60;99.90;;;;;;5056165;28;20896;-78
2023/09/10 02:53:54;;;;;;;17.93;16.03;;;19.50;99.90;;;;;;5056231;28;20926;-78
2023/09/10 02:56:21;;;;;;;19.40;17.50;;;19.60;99.90;;;;;;5056086;28;20444;-78
2023/09/10 02:58:48;;;;;;;19.03;16.93;;;19.50;99.90;;;;;;5056732;28;20459;-78
2023/09/10 03:01:14;;;;;;;19.93;17.03;;;19.50;99.90;;;;;;5056120;28;20551;-79
2023/09/10 03:03:41;;;;;;;19.43;16.40;;;19.50;99.90;;;;;;5056356;28;20486;-78
2023/09/10 03:06:13;;;;;;;17.67;15.80;;;19.50;99.90;;;;;;5056149;28;20499;-79
2023/09/10 03:08:42;;;;;;;17.57;15.37;;;19.40;99.90;;;;;;5055951;28;20463;-79
2023/09/10 03:11:09;;;;;;;17.90;16.13;;;19.40;99.90;;;;;;5056391;28;20469;-78
2023/09/10 03:13:36;;;;;;;18.17;16.20;;;19.40;99.90;;;;;;5055768;28;20569;-78
2023/09/10 03:16:03;;;;;;;18.80;16.17;;;19.40;99.90;;;;;;5055925;28;20450;-79
2023/09/10 03:18:30;;;;;;;18.60;16.57;;;19.40;99.90;;;;;;5056002;28;20450;-79
2023/09/10 03:20:56;;;;;;;19.70;17.27;;;19.40;99.90;;;;;;5055778;28;20455;-79
2023/09/10 03:23:25;;;;;;;17.53;15.77;;;19.30;99.90;;;;;;5055677;28;20482;-78
2023/09/10 03:25:51;;;;;;;17.33;15.53;;;19.30;99.90;;;;;;5055661;28;20867;-78
2023/09/10 03:28:18;;;;;;;19.00;17.00;;;19.30;99.90;;;;;;5055914;28;20452;-78
2023/09/10 03:30:45;;;;;;;20.67;17.23;;;19.30;99.90;;;;;;5055293;28;20448;-78
2023/09/10 03:33:12;;;;;;;18.97;16.97;;;19.30;99.90;;;;;;5055736;28;20471;-78
2023/09/10 03:35:38;;;;;;;18.37;16.00;;;19.30;99.90;;;;;;5055556;28;20454;-79
2023/09/10 03:38:05;;;;;;;20.30;18.13;;;19.20;99.90;;;;;;5055675;28;20456;-77
2023/09/10 03:40:33;;;;;;;18.73;16.50;;;19.20;99.90;;;;;;5054992;28;20464;-77
2023/09/10 03:43:00;;;;;;;18.70;16.23;;;19.20;99.90;;;;;;5054682;28;20456;-76
2023/09/10 03:45:27;;;;;;;17.70;15.73;;;19.20;99.90;;;;;;5055723;28;20499;-77
2023/09/10 03:47:53;;;;;;;19.10;16.27;;;19.20;99.90;;;;;;5055520;28;20582;-77
2023/09/10 03:50:20;;;;;;;18.00;16.10;;;19.20;99.90;;;;;;5055027;28;20519;-76
2023/09/10 03:52:47;;;;;;;19.73;16.60;;;19.20;99.90;;;;;;5055452;28;20466;-77
2023/09/10 03:55:15;;;;;;;18.20;16.30;;;19.20;99.90;;;;;;5055570;28;20452;-77
2023/09/10 03:57:43;;;;;;;17.30;14.47;;;19.20;99.90;;;;;;5054705;28;20839;-77
2023/09/10 04:00:11;;;;;;;19.70;16.07;;;19.10;99.90;;;;;;5054170;28;20474;-77
2023/09/10 04:02:37;;;;;;;19.43;17.33;;;19.10;99.90;;;;;;5054583;28;20455;-77
2023/09/10 04:05:05;;;;;;;18.03;16.13;;;19.10;99.90;;;;;;5069743;22;20576;-79
2023/09/10 04:07:32;;;;;;;18.50;16.50;;;19.10;99.90;;;;;;5037839;28;20463;-79
2023/09/10 04:09:59;;;;;;;19.50;16.43;;;19.10;99.90;;;;;;5030333;28;20448;-80
2023/09/10 04:12:26;;;;;;;18.23;16.23;;;19.10;99.90;;;;;;5030117;28;20663;-80
2023/09/10 04:14:54;;;;;;;18.20;16.07;;;19.00;99.90;;;;;;5031954;28;20474;-80
2023/09/10 04:17:21;;;;;;;17.93;15.90;;;19.00;99.90;;;;;;5035690;28;20453;-80
2023/09/10 04:19:47;;;;;;;17.03;15.23;;;19.00;99.90;;;;;;5035686;28;20470;-80
2023/09/10 04:22:15;;;;;;;19.63;16.83;;;19.10;99.90;;;;;;5035277;28;20488;-80
2023/09/10 04:24:42;;;;;;;17.27;15.57;;;19.00;99.90;;;;;;5035594;28;20488;-80
2023/09/10 04:27:08;;;;;;;19.63;16.10;;;19.00;99.90;;;;;;5035680;28;20539;-80
2023/09/10 04:29:35;;;;;;;18.03;16.10;;;19.00;99.90;;;;;;5036037;28;20840;-80
2023/09/10 04:32:04;;;;;;;17.10;14.80;;;18.90;99.90;;;;;;5035255;28;20440;-80
2023/09/10 04:34:30;;;;;;;17.73;15.53;;;18.90;99.90;;;;;;5035254;28;20462;-79
2023/09/10 04:36:59;;;;;;;16.97;15.17;;;18.90;99.90;;;;;;5035295;28;20541;-79
2023/09/10 04:39:26;;;;;;;19.33;15.53;;;18.80;99.90;;;;;;5035151;28;20543;-80
2023/09/10 04:41:53;;;;;;;17.20;15.50;;;18.90;99.90;;;;;;5034446;28;20825;-79
2023/09/10 04:44:20;;;;;;;17.80;15.30;;;18.90;99.90;;;;;;5034473;28;20474;-79
2023/09/10 04:46:47;;;;;;;20.17;17.50;;;18.90;99.90;;;;;;5035244;28;20575;-78
2023/09/10 04:49:15;;;;;;;20.53;15.27;;;18.80;99.90;;;;;;5034495;28;20483;-79
2023/09/10 04:51:42;;;;;;;16.93;15.10;;;18.80;99.90;;;;;;5033868;28;20449;-78
2023/09/10 04:54:09;;;;;;;17.73;16.03;;;18.80;99.90;;;;;;5035966;28;20547;-79
2023/09/10 04:56:36;;;;;;;19.23;15.03;;;18.90;99.90;;;;;;5039027;28;20475;-79
2023/09/10 04:59:03;;;;;;;17.73;15.37;;;18.90;99.90;;;;;;5038372;28;20461;-79
2023/09/10 05:01:29;;;;;;;17.70;14.90;;;18.90;99.90;;;;;;5038987;28;20453;-79
2023/09/10 05:03:56;;;;;;;16.73;14.93;;;18.80;99.90;;;;;;5038708;28;20460;-79
2023/09/10 05:06:24;;;;;;;17.53;15.00;;;18.80;99.90;;;;;;5038623;28;20500;-79
2023/09/10 05:08:52;;;;;;;17.07;15.27;;;18.80;99.90;;;;;;5038977;28;20543;-79
2023/09/10 05:11:19;;;;;;;16.73;14.93;;;18.80;99.90;;;;;;5038592;28;20452;-79
2023/09/10 05:13:46;;;;;;;16.87;15.27;;;18.80;99.90;;;;;;5038569;28;20995;-78
2023/09/10 05:16:12;;;;;;;17.57;15.83;;;18.90;99.90;;;;;;5038826;28;20844;-79
2023/09/10 05:18:39;;;;;;;16.03;14.20;;;18.80;99.90;;;;;;5038239;28;20474;-79
2023/09/10 05:21:06;;;;;;;16.93;14.50;;;18.80;99.90;;;;;;5037968;28;20464;-79
2023/09/10 05:23:35;;;;;;;16.70;15.13;;;18.80;99.90;;;;;;5038119;28;20527;-79
2023/09/10 05:26:03;;;;;;;17.73;16.03;;;18.90;99.90;;;;;;5038868;28;20500;-79
2023/09/10 05:28:30;;;;;;;17.50;15.90;;;18.90;99.90;;;;;;5038329;28;20463;-79
2023/09/10 05:30:56;;;;;;;17.20;15.60;;;18.90;99.90;;;;;;5038192;28;20461;-79
2023/09/10 05:33:23;;;;;;;15.10;13.57;;;18.90;99.90;;;;;;5038551;28;20457;-79
2023/09/10 05:35:56;;;;;;;15.80;14.20;;;18.90;99.90;;;;;;5038966;28;20473;-79
2023/09/10 05:38:22;;;;;;;19.07;15.90;;;18.90;99.90;;;;;;5039090;28;20484;-79
2023/09/10 05:40:51;;;;;;;16.47;14.20;;;18.90;99.90;;;;;;5038588;28;20483;-79
2023/09/10 05:43:17;;;;;;;19.57;15.40;;;19.00;99.90;;;;;;5038715;28;20471;-79
2023/09/10 05:45:45;;;;;;;15.90;14.40;;;19.00;99.90;;;;;;5038892;28;20491;-80
2023/09/10 05:48:12;;;;;;;16.07;14.37;;;19.00;99.90;;;;;;5039032;28;20847;-79
2023/09/10 05:50:40;;;;;;;16.60;14.90;;;19.00;99.90;;;;;;5037758;28;20456;-79
2023/09/10 05:53:07;;;;;;;16.93;14.97;;;19.10;99.90;;;;;;5038767;28;20448;-79
2023/09/10 05:55:34;;;;;;;16.97;14.50;;;19.10;99.90;;;;;;5038149;28;20478;-79
2023/09/10 05:58:02;;;;;;;16.83;15.33;;;19.20;99.90;;;;;;5038769;28;20456;-79
2023/09/10 06:00:29;;;;;;;15.27;13.77;;;19.20;99.90;;;;;;5038058;28;20939;-79
2023/09/10 06:02:55;;;;;;;16.80;15.10;;;19.30;99.90;;;;;;5038264;28;20444;-79
2023/09/10 06:05:22;;;;;;;15.90;13.70;;;19.30;99.90;;;;;;5029902;28;20507;-80
2023/09/10 06:07:49;;;;;;;16.40;14.70;;;19.30;99.90;;;;;;5038889;28;20551;-80
2023/09/10 06:10:16;;;;;;;16.97;15.37;;;19.30;99.90;;;;;;5038000;28;20463;-79
2023/09/10 06:12:43;;;;;;;16.70;14.97;;;19.40;99.90;;;;;;5038511;28;20461;-80
2023/09/10 06:15:11;;;;;;;14.60;12.90;;;19.40;99.90;;;;;;5037719;28;20480;-80
2023/09/10 06:17:38;;;;;;;17.80;15.07;;;19.50;99.90;;;;;;5038388;28;20464;-80
2023/09/10 06:20:05;;;;;;;16.50;14.90;;;19.50;99.90;;;;;;5037853;28;20453;-79
2023/09/10 06:22:32;;;;;;;14.73;13.23;;;19.60;99.90;;;;;;5035403;28;20491;-79
2023/09/10 06:24:59;;;;;;;16.23;14.60;;;19.70;99.90;;;;;;5034979;28;20473;-79
2023/09/10 06:27:26;;;;;;;15.10;13.70;;;19.70;99.90;;;;;;5036393;28;20488;-79
2023/09/10 06:29:53;;;;;;;15.50;14.10;;;19.80;99.90;;;;;;5035549;28;20452;-80
2023/09/10 06:32:21;;;;;;;14.97;13.57;;;19.80;99.90;;;;;;5035259;28;20445;-78
2023/09/10 06:34:48;;;;;;;15.20;13.77;;;19.90;99.90;;;;;;5036268;28;20468;-79
2023/09/10 06:37:15;;;;;;;17.23;14.90;;;19.90;99.90;;;;;;5036306;28;20520;-79
2023/09/10 06:39:42;;;;;;;15.20;13.73;;;20.00;99.90;;;;;;5036162;28;20850;-79
2023/09/10 06:42:11;;;;;;;15.70;14.17;;;20.00;99.90;;;;;;5036380;28;21057;-79
2023/09/10 06:44:38;;;;;;;17.80;15.00;;;20.10;99.90;;;;;;5037839;28;20465;-80
2023/09/10 06:47:05;;;;;;;16.23;14.73;;;20.20;99.90;;;;;;5037313;28;20551;-80
2023/09/10 06:49:33;;;;;;;16.67;15.10;;;20.20;99.90;;;;;;5037750;28;20471;-79
2023/09/10 06:52:00;;;;;;;17.70;15.90;;;20.30;99.90;;;;;;5036787;28;20539;-79
2023/09/10 06:54:27;;;;;;;16.30;14.90;;;20.30;99.90;;;;;;5037441;28;20487;-79
2023/09/10 06:56:53;;;;;;;15.90;14.40;;;20.40;99.90;;;;;;5037151;28;20451;-79
2023/09/10 06:59:20;;;;;;;16.03;14.53;;;20.40;99.90;;;;;;5037304;28;20456;-80
2023/09/10 07:01:47;;;;;;;14.60;13.30;;;20.50;99.90;;;;;;5036183;28;20889;-79
2023/09/10 07:04:18;;;;;;;15.57;14.03;;;20.50;99.90;;;;;;5035971;28;20457;-78
2023/09/10 07:06:47;;;;;;;16.10;14.43;;;20.60;99.90;;;;;;5035697;28;20492;-79
2023/09/10 07:09:14;;;;;;;14.20;13.00;;;20.60;99.90;;;;;;5035450;28;20467;-79
2023/09/10 07:11:41;;;;;;;13.87;12.53;;;20.70;99.90;;;;;;5036400;28;20463;-79
2023/09/10 07:14:08;;;;;;;15.20;13.80;;;20.80;99.90;;;;;;5036603;28;20463;-80
2023/09/10 07:16:35;;;;;;;13.57;12.17;;;20.80;99.90;;;;;;5036498;28;20779;-79
2023/09/10 07:19:02;;;;;;;14.63;13.17;;;20.90;99.90;;;;;;5037133;28;20467;-80
2023/09/10 07:21:29;;;;;;;15.67;13.80;;;20.90;99.90;;;;;;5036998;28;20453;-80
2023/09/10 07:23:57;;;;;;;15.80;14.20;;;21.00;99.90;;;;;;5038099;28;20457;-80
2023/09/10 07:26:24;;;;;;;16.43;14.93;;;21.10;99.90;;;;;;5038215;28;20492;-80
2023/09/10 07:28:51;;;;;;;14.43;13.10;;;21.10;99.90;;;;;;5037947;28;20524;-80
2023/09/10 07:31:18;;;;;;;13.60;12.30;;;21.20;99.90;;;;;;5037219;28;20492;-81
2023/09/10 07:33:45;;;;;;;14.00;12.50;;;21.30;99.90;;;;;;5036906;28;20471;-80
2023/09/10 07:36:12;;;;;;;14.17;12.87;;;21.30;99.90;;;;;;5037360;28;20475;-80
2023/09/10 07:38:38;;;;;;;15.00;13.27;;;21.40;99.90;;;;;;5037618;28;20951;-81
2023/09/10 07:41:07;;;;;;;15.30;13.80;;;21.50;99.90;;;;;;5036524;28;20842;-81
2023/09/10 07:43:33;;;;;;;14.80;13.40;;;21.60;99.90;;;;;;5037369;28;20494;-81
2023/09/10 07:46:00;;;;;;;14.60;13.20;;;21.60;99.90;;;;;;5036793;28;20501;-81
2023/09/10 07:48:27;;;;;;;14.30;12.57;;;21.70;99.90;;;;;;5036364;28;20486;-81
2023/09/10 07:50:55;;;;;;;15.77;14.13;;;21.80;99.90;;;;;;5036563;28;20456;-80
2023/09/10 07:53:22;;;;;;;13.80;12.43;;;21.80;99.90;;;;;;5036263;28;20453;-81
2023/09/10 07:55:49;;;;;;;13.83;12.53;;;21.90;99.90;;;;;;5036546;28;20483;-80
2023/09/10 07:58:17;;;;;;;13.73;12.27;;;22.00;99.90;;;;;;5036446;28;20539;-80
2023/09/10 08:00:45;;;;;;;14.23;12.90;;;22.10;99.90;;;;;;5035476;28;20449;-81
2023/09/10 08:03:13;;;;;;;13.93;12.63;;;22.10;99.90;;;;;;5036375;28;20467;-81
2023/09/10 08:05:39;;;;;;;13.10;12.00;;;22.20;99.90;;;;;;5036492;28;20504;-81
2023/09/10 08:08:07;;;;;;;13.03;11.80;;;22.30;99.90;;;;;;5037163;28;20453;-81
2023/09/10 08:10:34;;;;;;;15.23;13.87;;;22.30;99.90;;;;;;5036401;28;20489;-81
2023/09/10 08:13:03;;;;;;;17.17;13.03;;;22.40;99.90;;;;;;5036288;28;20552;-80
2023/09/10 08:15:31;;;;;;;14.00;12.70;;;22.50;99.90;;;;;;5036671;28;21021;-81
2023/09/10 08:18:00;;;;;;;13.47;12.17;;;22.60;99.90;;;;;;5037266;28;20888;-81
2023/09/10 08:20:27;;;;;;;13.57;12.40;;;22.70;99.90;;;;;;5036157;28;21052;-81
2023/09/10 08:22:54;;;;;;;13.30;12.07;;;22.80;99.90;;;;;;5035749;28;20456;-81
2023/09/10 08:25:21;;;;;;;14.33;12.00;;;22.90;99.90;;;;;;5033337;28;20468;-79
2023/09/10 08:27:48;;;;;;;12.73;11.63;;;23.00;99.90;;;;;;5030906;28;20503;-80
2023/09/10 08:30:15;;;;;;;11.47;10.47;;;23.10;99.90;;;;;;5028949;28;20479;-79
2023/09/10 08:32:45;;;;;;;12.80;11.67;;;23.20;99.90;;;;;;5028553;28;20535;-80
2023/09/10 08:35:13;;;;;;;12.80;11.30;;;23.30;99.90;;;;;;5028862;28;20477;-80
2023/09/10 08:37:42;;;;;;;11.30;10.30;;;23.50;99.90;;;;;;5030005;28;20441;-79
2023/09/10 08:40:10;;;;;;;10.50;9.60;;;23.60;99.90;;;;;;5029167;28;20454;-80
2023/09/10 08:42:46;;;;;;;11.00;10.00;;;23.70;99.90;;;;;;5029854;28;20455;-81
2023/09/10 08:45:14;;;;;;;10.03;9.00;;;24.00;99.90;;;;;;5029042;28;20994;-80
2023/09/10 08:47:44;;;;;;;10.87;9.87;;;24.10;99.90;;;;;;5032316;28;20499;-81
2023/09/10 08:50:12;;;;;;;10.37;9.43;;;24.20;99.90;;;;;;5035482;28;20453;-81
2023/09/10 08:52:40;;;;;;;11.67;9.20;;;24.30;99.90;;;;;;5034969;28;20552;-81
2023/09/10 08:55:08;;;;;;;9.60;8.80;;;24.40;99.90;;;;;;5035201;28;20480;-81
2023/09/10 08:57:38;;;;;;;9.67;8.77;;;24.40;96.90;;;;;;5035269;28;20520;-81
2023/09/10 09:00:09;;;;;;;10.00;9.17;;;24.40;99.60;;;;;;5032495;28;20452;-80
2023/09/10 09:02:35;;;;;;;9.80;8.90;;;24.50;99.90;;;;;;5035406;28;20452;-81
2023/09/10 09:05:04;;;;;;;9.93;9.03;;;24.50;96.90;;;;;;5035689;28;20479;-80
2023/09/10 09:07:35;;;;;;;9.30;8.40;;;24.60;74.90;;;;;;5035919;28;20909;-81
2023/09/10 09:10:04;;;;;;;9.67;8.87;;;24.70;5.80;;;;;;5035582;28;20449;-81
2023/09/10 09:12:35;;;;;;;9.80;8.90;;;24.70;34.80;;;;;;5035695;28;20544;-80
2023/09/10 09:15:03;;;;;;;13.77;7.83;;;24.90;1.00;;;;;;5035307;28;20528;-81
2023/09/10 09:17:30;;;;;;;8.37;7.30;;;25.00;1.00;;;;;;5035329;28;20904;-78
2023/09/10 09:19:59;;;;;;;7.20;6.60;;;25.10;1.00;;;;;;5034272;28;20492;-79
2023/09/10 09:22:31;;;;;;;10.13;8.37;;;25.20;1.00;;;;;;5034340;28;20445;-79
2023/09/10 09:24:58;;;;;;;10.00;7.13;;;25.30;1.00;;;;;;5034430;28;20895;-79
2023/09/10 09:27:26;;;;;;;7.57;6.77;;;25.50;99.90;;;;;;5034443;28;20579;-79
2023/09/10 09:29:54;;;;;;;11.37;7.50;;;25.60;1.00;;;;;;5033810;28;20490;-79
2023/09/10 09:32:21;;;;;;;7.10;6.40;;;25.80;1.00;;;;;;5033268;28;20535;-79
2023/09/10 09:34:47;;;;;;;10.03;6.97;;;26.00;1.00;;;;;;5033852;28;20486;-79
2023/09/10 09:37:19;;;;;;;7.97;7.00;;;26.20;99.90;;;;;;5033831;28;20464;-79
2023/09/10 09:39:51;;;;;;;8.83;6.40;;;26.40;99.90;;;;;;5033676;28;20544;-79
2023/09/10 09:42:18;;;;;;;7.23;6.00;;;26.60;99.90;;;;;;5038127;28;20447;-80
2023/09/10 09:44:45;;;;;;;7.90;5.70;;;26.80;99.90;;;;;;5037900;28;20468;-80
2023/09/10 09:47:13;;;;;;;8.87;6.80;;;27.10;1.00;;;;;;5038279;28;20548;-80
2023/09/10 09:49:48;;;;;;;10.70;6.87;;;27.30;99.90;;;;;;5038157;28;20460;-79
2023/09/10 09:52:16;;;;;;;9.10;6.20;;;27.50;99.90;;;;;;5031747;28;20466;-80
2023/09/10 09:54:43;;;;;;;7.83;5.30;;;27.60;1.00;;;;;;5038531;28;20473;-80
2023/09/10 09:57:11;;;;;;;13.90;5.20;;;27.80;1.00;;;;;;5038773;28;20643;-80
2023/09/10 09:59:38;;;;;;;9.37;5.83;;;28.00;1.00;;;;;;5037838;28;20897;-80
2023/09/10 10:02:05;;;;;;;14.70;5.80;;;28.30;6.50;;;;;;5036787;28;20536;-80
2023/09/10 10:04:33;;;;;;;14.97;6.10;;;28.60;90.40;;;;;;5037701;28;20448;-79
2023/09/10 10:07:00;;;;;;;10.63;6.27;;;28.90;1.00;;;;;;5063126;22;20484;-78
2023/09/10 10:09:35;;;;;;;12.87;5.70;;;29.10;1.00;;;;;;5036408;28;20455;-78
2023/09/10 10:12:02;;;;;;;7.87;5.70;;;29.30;99.90;;;;;;5045640;28;20443;-78
2023/09/10 10:14:32;;;;;;;8.13;5.70;;;29.40;1.00;;;;;;5054158;28;20972;-78
2023/09/10 10:17:01;;;;;;;9.20;5.97;;;29.70;99.90;;;;;;5035131;28;20483;-78
2023/09/10 10:19:29;;;;;;;11.40;5.10;;;29.80;99.90;;;;;;5023319;28;20444;-78
2023/09/10 10:21:57;;;;;;;15.60;5.53;;;30.00;1.00;;;;;;5019484;28;20625;-78
2023/09/10 10:24:24;;;;;;;8.83;5.40;;;30.10;99.90;;;;;;5017349;28;20450;-78
2023/09/10 10:26:51;;;;;;;13.87;5.47;;;30.10;99.90;;;;;;5022588;28;20585;-78
2023/09/10 10:29:19;;;;;;;12.03;5.67;;;30.20;1.00;;;;;;5023319;28;20433;-78
2023/09/10 10:31:54;;;;;;;11.37;5.90;;;30.30;99.90;;;;;;5021167;28;20450;-78
2023/09/10 10:34:24;;;;;;;13.93;5.70;;;30.30;1.00;;;;;;5017191;28;20845;-78
2023/09/10 10:36:59;;;;;;;9.10;4.70;;;30.60;1.00;;;;;;5017052;28;20476;-79
2023/09/10 10:39:37;;;;;;;8.07;4.50;;;30.80;1.00;;;;;;5017490;28;20464;-79
2023/09/10 10:42:09;;;;;;;8.90;5.60;;;30.80;99.90;;;;;;5020346;28;20450;-76
2023/09/10 10:44:38;;;;;;;7.30;4.97;;;30.80;99.90;;;;;;5020729;28;20465;-77
2023/09/10 10:47:14;;;;;;;7.10;5.60;;;30.80;99.90;;;;;;5016249;28;20520;-76
2023/09/10 10:49:50;;;;;;;6.40;5.17;;;30.90;99.90;;;;;;5016831;28;20472;-78
2023/09/10 10:52:21;;;;;;;6.57;4.57;;;31.00;99.90;;;;;;5014851;28;20462;-78
2023/09/10 10:54:51;;;;;;;7.80;5.53;;;31.20;99.90;;;;;;5016668;28;20521;-79
2023/09/10 10:57:19;;;;;;;6.70;4.73;;;31.30;1.00;;;;;;5016711;28;20462;-79
2023/09/10 10:59:46;;;;;;;12.27;6.00;;;31.40;99.90;;;;;;5016503;28;20898;-78
2023/09/10 11:02:21;;;;;;;9.50;5.20;;;31.50;94.20;;;;;;5029836;28;20475;-79
2023/09/10 11:04:56;;;;;;;9.03;4.60;;;31.70;1.00;;;;;;5036684;28;20456;-78
2023/09/10 11:07:24;;;;;;;9.67;5.57;;;31.90;6.90;;;;;;5036001;28;20521;-79
2023/09/10 11:09:51;;;;;;;13.00;5.93;;;31.90;17.70;;;;;;5035710;28;20512;-78
2023/09/10 11:12:18;;;;;;;7.63;4.87;;;32.00;1.00;;;;;;5035484;28;20583;-78
2023/09/10 11:15:04;;;;;;;9.20;4.60;;;32.30;1.00;;;;;;5036046;28;20537;-79
2023/09/10 11:17:34;;;;;;;12.00;5.17;;;32.40;62.40;;;;;;5035612;28;21013;-79
2023/09/10 11:20:03;;;;;;;8.20;5.27;;;32.40;1.00;;;;;;5035640;28;20832;-79
2023/09/10 11:23:04;;;;;;;8.70;5.90;;;32.40;1.00;;;;;;5035960;28;20453;-79
2023/09/10 11:25:33;;;;;;;9.03;5.13;;;32.40;99.90;;;;;;5029620;28;20444;-78
2023/09/10 11:28:00;;;;;;;9.73;5.27;;;32.40;23.80;;;;;;5036074;28;20831;-79
2023/09/10 11:30:27;;;;;;;11.23;5.80;;;32.40;1.00;;;;;;5035453;28;20449;-78
2023/09/10 11:33:27;;;;;;;14.73;5.50;;;32.90;1.00;;;;;;5035922;28;20452;-79
2023/09/10 11:35:58;;;;;;;9.03;4.70;;;33.00;1.00;;;;;;5036161;28;20455;-78
2023/09/10 11:38:29;;;;;;;10.63;5.40;;;33.00;1.00;;;;;;5025334;28;20445;-78
2023/09/10 11:40:56;;;;;;;9.77;6.27;;;33.10;1.00;;;;;;5027837;28;20455;-78
2023/09/10 11:43:24;;;;;;;7.67;5.20;;;33.20;1.00;;;;;;5016390;28;20446;-78
2023/09/10 11:45:50;;;;;;;12.30;5.17;;;33.40;1.00;;;;;;5015953;28;20452;-77
2023/09/10 11:48:17;;;;;;;9.80;5.63;;;33.40;1.00;;;;;;5015862;28;20504;-78
2023/09/10 11:50:45;;;;;;;17.43;5.40;;;33.50;1.00;;;;;;5015649;28;20458;-78
2023/09/10 11:53:13;;;;;;;11.30;6.07;;;33.60;1.00;;;;;;5015944;28;20486;-78
2023/09/10 11:55:40;;;;;;;10.30;5.10;;;33.70;1.00;;;;;;5016100;28;20438;-79
2023/09/10 11:58:07;;;;;;;13.93;5.37;;;33.70;1.00;;;;;;5015995;28;20456;-78
2023/09/10 12:00:34;;;;;;;10.17;5.20;;;33.70;1.00;;;;;;5015375;28;20481;-79
2023/09/10 12:03:01;;;;;;;11.33;5.30;;;33.90;1.00;;;;;;5014942;28;20472;-78
2023/09/10 12:05:29;;;;;;;8.87;4.93;;;33.90;1.00;;;;;;5015905;28;20838;-78
2023/09/10 12:07:58;;;;;;;9.20;5.23;;;34.10;1.00;;;;;;5015114;28;20493;-78
2023/09/10 12:10:26;;;;;;;10.27;5.07;;;34.10;1.00;;;;;;5015034;28;20453;-78
2023/09/10 12:12:53;;;;;;;12.70;5.00;;;34.20;1.00;;;;;;5015247;28;20464;-78
2023/09/10 12:15:20;;;;;;;11.50;5.70;;;34.50;1.00;;;;;;5015750;28;20446;-78
2023/09/10 12:17:47;;;;;;;9.47;4.73;;;34.90;1.00;;;;;;5015286;28;20557;-78
2023/09/10 12:20:14;;;;;;;9.37;4.97;;;35.40;1.00;;;;;;5022948;28;20461;-77
2023/09/10 12:22:41;;;;;;;9.53;4.77;;;35.60;1.00;;;;;;5034273;28;20537;-78
2023/09/10 12:25:09;;;;;;;12.70;4.87;;;35.60;1.00;;;;;;5034773;28;20453;-78
2023/09/10 12:27:38;;;;;;;10.40;5.67;;;35.60;1.00;;;;;;5032292;28;20637;-78
2023/09/10 12:30:07;;;;;;;11.00;5.43;;;35.40;1.00;;;;;;5028142;28;20461;-77
2023/09/10 12:32:34;;;;;;;11.23;5.43;;;35.30;1.00;;;;;;5023265;28;20460;-79
2023/09/10 12:35:00;;;;;;;11.87;5.63;;;35.20;1.00;;;;;;5035971;28;20549;-78
2023/09/10 12:37:27;;;;;;;9.83;5.03;;;35.10;1.00;;;;;;5035961;28;20930;-78